Time;durP1;ratioP1;P1;durP2;ratioP2;P2;SDS_P1;SDS_P2;PMS_P1;PMS_P2;Temp;Humidity;BMP_temperature;BMP_pressure;BME280_temperature;BME280_humidity;BME280_pressure;Samples;Min_cycle;Max_cycle;Signal;HPM_P1;HPM_P2
2023/07/14 00:01:50;;;;;;;;;;;16.70;99.90;;;;;;8352007;28;20376;-71
2023/07/14 00:05:52;;;;;;;;;;;16.70;99.90;;;;;;8370338;28;19964;-71
2023/07/14 00:09:53;;;;;;;;;;;16.70;99.90;;;;;;8365381;28;19925;-71
2023/07/14 00:13:55;;;;;;;;;;;16.70;99.90;;;;;;8351820;28;19925;-71
2023/07/14 00:18:00;;;;;;;;;;;16.60;99.90;;;;;;8363153;28;19925;-71
2023/07/14 00:22:02;;;;;;;;;;;16.60;99.90;;;;;;8356160;28;20027;-71
2023/07/14 00:26:04;;;;;;;;;;;16.60;99.90;;;;;;8350087;28;19929;-71
2023/07/14 00:30:14;;;;;;;;;;;16.60;99.90;;;;;;8359289;28;19970;-71
2023/07/14 00:34:16;;;;;;;;;;;16.60;99.90;;;;;;8362230;28;20370;-71
2023/07/14 00:38:18;;;;;;;;;;;16.60;99.90;;;;;;8349761;28;20343;-71
2023/07/14 00:42:19;;;;;;;;;;;16.60;99.90;;;;;;8357860;28;19970;-71
2023/07/14 00:46:29;;;;;;;;;;;16.60;99.90;;;;;;8365315;28;20291;-70
2023/07/14 00:50:38;;;;;;;;;;;16.70;99.90;;;;;;8353829;28;19925;-70
2023/07/14 00:54:42;;;;;;;;;;;16.70;99.90;;;;;;8360701;28;19978;-71
2023/07/14 00:58:45;;;;;;;;;;;16.70;99.90;;;;;;8363127;28;19933;-71
2023/07/14 01:02:47;;;;;;;;;;;16.70;99.90;;;;;;8362567;28;19937;-71
2023/07/14 01:06:49;;;;;;;;;;;16.80;99.90;;;;;;8386300;28;20280;-71
2023/07/14 01:10:50;;;;;;;;;;;16.80;99.90;;;;;;8362097;28;19955;-71
2023/07/14 01:14:53;;;;;;;;;;;16.80;99.90;;;;;;8361594;28;20347;-71
2023/07/14 01:18:56;;;;;;;;;;;16.80;99.90;;;;;;8363835;28;19925;-71
2023/07/14 01:23:21;;;;;;;;;;;16.80;99.90;;;;;;8341091;28;19940;-71
2023/07/14 01:27:26;;;;;;;;;;;16.80;99.90;;;;;;8371339;28;20020;-71
2023/07/14 01:31:28;;;;;;;;;;;16.80;99.90;;;;;;8361322;28;19924;-71
2023/07/14 01:35:34;;;;;;;;;;;16.80;99.90;;;;;;8362892;28;19983;-71
2023/07/14 01:39:35;;;;;;;;;;;16.90;99.90;;;;;;8353525;28;19925;-71
2023/07/14 01:43:38;;;;;;;;;;;16.90;99.90;;;;;;8363661;28;19935;-71
2023/07/14 01:47:42;;;;;;;;;;;16.90;99.90;;;;;;8361481;28;19925;-71
2023/07/14 01:51:45;;;;;;;;;;;17.00;99.90;;;;;;8376282;28;19989;-71
2023/07/14 01:55:47;;;;;;;;;;;17.10;99.90;;;;;;8370578;28;19932;-71
2023/07/14 01:59:54;;;;;;;;;;;17.10;99.90;;;;;;8363817;28;19931;-71
2023/07/14 02:03:57;;;;;;;;;;;17.20;99.90;;;;;;8376935;28;19924;-71
2023/07/14 02:08:02;;;;;;;;;;;17.30;99.90;;;;;;8356255;28;19994;-71
2023/07/14 02:12:04;;;;;;;;;;;17.30;99.90;;;;;;8390670;28;19986;-71
2023/07/14 02:16:08;;;;;;;;;;;17.30;99.90;;;;;;8382797;28;20326;-71
2023/07/14 02:20:17;;;;;;;;;;;17.30;99.90;;;;;;8358734;28;19976;-71
2023/07/14 02:24:20;;;;;;;;;;;17.30;99.90;;;;;;8355863;28;19925;-71
2023/07/14 02:28:22;;;;;;;;;;;17.40;99.90;;;;;;8371742;28;21047;-71
2023/07/14 02:32:29;;;;;;;;;;;17.30;99.90;;;;;;8344865;28;20006;-71
2023/07/14 02:36:37;;;;;;;;;;;17.20;99.90;;;;;;8361285;28;19930;-71
2023/07/14 02:40:52;;;;;;;;;;;17.20;99.90;;;;;;8368420;28;19928;-71
2023/07/14 02:44:54;;;;;;;;;;;17.20;99.90;;;;;;8365101;28;19928;-71
2023/07/14 02:48:56;;;;;;;;;;;17.20;99.90;;;;;;8356635;28;19986;-71
2023/07/14 02:52:57;;;;;;;;;;;17.10;99.90;;;;;;8354260;28;19924;-71
2023/07/14 02:56:59;;;;;;;;;;;17.10;99.90;;;;;;8352908;28;20758;-71
2023/07/14 03:01:01;;;;;;;;;;;17.00;99.90;;;;;;8355090;28;19932;-71
2023/07/14 03:05:03;;;;;;;;;;;17.00;99.90;;;;;;8376052;28;19977;-71
2023/07/14 03:09:05;;;;;;;;;;;17.00;99.90;;;;;;8363094;28;19925;-71
2023/07/14 03:13:07;;;;;;;;;;;17.00;99.90;;;;;;8354702;28;20379;-71
2023/07/14 03:17:09;;;;;;;;;;;16.90;99.90;;;;;;8375916;28;19932;-71
2023/07/14 03:21:11;;;;;;;;;;;16.80;99.90;;;;;;8363544;28;20216;-71
2023/07/14 03:25:13;;;;;;;;;;;16.80;99.90;;;;;;8353032;28;19932;-72
2023/07/14 03:29:14;;;;;;;;;;;16.80;99.90;;;;;;8359526;28;19932;-71
2023/07/14 03:33:16;;;;;;;;;;;16.70;99.90;;;;;;8357030;28;19940;-71
2023/07/14 03:42:46;;;;;;;;;;;16.60;99.90;;;;;;8340739;28;19920;-71
2023/07/14 03:46:48;;;;;;;;;;;16.60;99.90;;;;;;8361307;28;20318;-71
2023/07/14 03:50:50;;;;;;;;;;;16.60;99.90;;;;;;8373697;28;19925;-71
2023/07/14 03:54:51;;;;;;;;;;;16.60;99.90;;;;;;8358558;28;19991;-71
2023/07/14 03:58:53;;;;;;;;;;;16.60;99.90;;;;;;8370994;28;19971;-71
2023/07/14 04:02:56;;;;;;;;;;;16.60;99.90;;;;;;8346695;28;19929;-71
2023/07/14 04:06:57;;;;;;;;;;;16.50;99.90;;;;;;8375317;28;19962;-71
2023/07/14 04:11:00;;;;;;;;;;;16.50;99.90;;;;;;8352533;28;19986;-71
2023/07/14 04:15:02;;;;;;;;;;;16.50;99.90;;;;;;8344594;28;19925;-71
2023/07/14 04:19:03;;;;;;;;;;;16.50;99.90;;;;;;8363316;28;19932;-70
2023/07/14 04:23:05;;;;;;;;;;;16.40;99.90;;;;;;8371022;28;19976;-70
2023/07/14 04:27:07;;;;;;;;;;;16.40;99.90;;;;;;8356128;28;19935;-70
2023/07/14 04:31:09;;;;;;;;;;;16.40;99.90;;;;;;8321976;28;19986;-70
2023/07/14 04:35:11;;;;;;;;;;;16.40;99.90;;;;;;8362515;28;19975;-70
2023/07/14 04:39:13;;;;;;;;;;;16.50;99.90;;;;;;8368287;28;19928;-71
2023/07/14 04:43:15;;;;;;;;;;;16.50;99.90;;;;;;8367780;28;20408;-70
2023/07/14 04:47:17;;;;;;;;;;;16.50;99.90;;;;;;8359425;28;19925;-70
2023/07/14 04:51:18;;;;;;;;;;;16.60;99.90;;;;;;8370406;28;20413;-71
2023/07/14 04:55:20;;;;;;;;;;;16.70;99.90;;;;;;8399360;28;19925;-70
2023/07/14 04:59:22;;;;;;;;;;;16.70;99.90;;;;;;8393396;28;19932;-70
2023/07/14 05:03:25;;;;;;;;;;;16.70;99.90;;;;;;8394429;28;19925;-70
2023/07/14 05:07:27;;;;;;;;;;;16.80;99.90;;;;;;8357080;28;20287;-70
2023/07/14 05:11:29;;;;;;;;;;;16.80;99.90;;;;;;8383697;28;19931;-70
2023/07/14 05:15:31;;;;;;;;;;;16.90;99.90;;;;;;8367903;28;20015;-71
2023/07/14 05:19:32;;;;;;;;;;;16.90;99.90;;;;;;8367914;28;19940;-71
2023/07/14 05:23:34;;;;;;;;;;;17.00;99.90;;;;;;8369128;28;19929;-71
2023/07/14 05:27:36;;;;;;;;;;;17.00;99.90;;;;;;8371133;28;20371;-71
2023/07/14 05:31:38;;;;;;;;;;;17.10;99.90;;;;;;8374929;28;19936;-71
2023/07/14 05:35:40;;;;;;;;;;;17.10;99.90;;;;;;8375320;28;19924;-71
2023/07/14 05:39:41;;;;;;;;;;;17.20;99.90;;;;;;8369452;28;20028;-71
2023/07/14 05:43:43;;;;;;;;;;;17.20;99.90;;;;;;8372770;28;20011;-71
2023/07/14 05:47:46;;;;;;;;;;;17.30;99.90;;;;;;8350199;28;19935;-72
2023/07/14 05:51:48;;;;;;;;;;;17.30;99.90;;;;;;8326348;28;19925;-71
2023/07/14 05:55:49;;;;;;;;;;;17.40;99.90;;;;;;8356137;28;20457;-71
2023/07/14 05:59:52;;;;;;;;;;;17.40;99.90;;;;;;8372464;28;19995;-71
2023/07/14 06:03:54;;;;;;;;;;;17.50;99.90;;;;;;8371920;28;19933;-71
2023/07/14 06:07:55;;;;;;;;;;;17.50;99.90;;;;;;8364927;28;20380;-71
2023/07/14 06:11:58;;;;;;;;;;;17.50;99.90;;;;;;8369827;28;19925;-71
2023/07/14 06:16:00;;;;;;;;;;;17.50;99.90;;;;;;8354303;28;20393;-71
2023/07/14 06:20:01;;;;;;;;;;;17.50;99.90;;;;;;8371155;28;20388;-71
2023/07/14 06:24:07;;;;;;;;;;;17.50;99.90;;;;;;8376129;28;19998;-71
2023/07/14 06:28:09;;;;;;;;;;;17.60;99.90;;;;;;8368325;28;19933;-71
2023/07/14 06:32:11;;;;;;;;;;;17.70;99.90;;;;;;8362219;28;19929;-72
2023/07/14 06:36:12;;;;;;;;;;;17.70;99.90;;;;;;8348088;28;19959;-71
2023/07/14 06:40:15;;;;;;;;;;;17.80;99.90;;;;;;8376167;28;19929;-71
2023/07/14 06:44:16;;;;;;;;;;;17.80;99.90;;;;;;8372114;28;20311;-71
2023/07/14 06:48:27;;;;;;;;;;;17.90;99.90;;;;;;8375933;28;19963;-71
2023/07/14 06:52:28;;;;;;;;;;;17.90;99.90;;;;;;8353948;28;20052;-71
2023/07/14 06:56:30;;;;;;;;;;;17.90;99.90;;;;;;8389455;28;20369;-71
2023/07/14 07:00:33;;;;;;;;;;;18.00;99.90;;;;;;8366687;28;19932;-71
2023/07/14 07:04:35;;;;;;;;;;;17.90;99.90;;;;;;8381565;28;19925;-71
2023/07/14 07:08:36;;;;;;;;;;;17.90;99.90;;;;;;8374127;28;19951;-71
2023/07/14 07:12:38;;;;;;;;;;;17.90;99.90;;;;;;8372627;28;19983;-71
2023/07/14 07:16:40;;;;;;;;;;;18.00;99.90;;;;;;8338793;28;19929;-71
2023/07/14 07:20:42;;;;;;;;;;;18.10;99.90;;;;;;8351700;28;19928;-71
2023/07/14 07:24:44;;;;;;;;;;;18.00;99.90;;;;;;8355246;28;19937;-71
2023/07/14 07:28:46;;;;;;;;;;;18.10;99.90;;;;;;8350538;28;19940;-71
2023/07/14 07:32:48;;;;;;;;;;;18.20;99.90;;;;;;8367746;28;19928;-71
2023/07/14 07:36:49;;;;;;;;;;;18.20;99.90;;;;;;8357244;28;19975;-71
2023/07/14 07:40:51;;;;;;;;;;;18.30;99.90;;;;;;8364182;28;19979;-71
2023/07/14 07:44:53;;;;;;;;;;;18.40;99.90;;;;;;8355535;28;19940;-71
2023/07/14 07:48:55;;;;;;;;;;;18.50;99.90;;;;;;8360886;28;20398;-71
2023/07/14 07:52:56;;;;;;;;;;;18.50;99.90;;;;;;8374510;28;19924;-71
2023/07/14 07:56:58;;;;;;;;;;;18.50;99.90;;;;;;8391820;28;19925;-71
2023/07/14 08:01:01;;;;;;;;;;;18.50;99.90;;;;;;8367301;28;20307;-71
2023/07/14 08:05:03;;;;;;;;;;;18.50;99.90;;;;;;8362339;28;19970;-71
2023/07/14 08:09:06;;;;;;;;;;;18.50;99.90;;;;;;8336810;28;19951;-71
2023/07/14 08:13:09;;;;;;;;;;;18.50;99.90;;;;;;8342966;28;20023;-71
2023/07/14 08:17:10;;;;;;;;;;;18.60;99.90;;;;;;8327143;28;19929;-71
2023/07/14 08:21:12;;;;;;;;;;;18.80;99.90;;;;;;8327267;28;19925;-71
2023/07/14 08:25:14;;;;;;;;;;;18.80;99.90;;;;;;8322151;28;19932;-71
2023/07/14 08:29:15;;;;;;;;;;;18.80;99.90;;;;;;8326636;28;19949;-72
2023/07/14 08:33:18;;;;;;;;;;;18.90;99.90;;;;;;8325270;28;19936;-71
2023/07/14 08:37:20;;;;;;;;;;;18.90;99.90;;;;;;8330735;28;20399;-71
2023/07/14 08:41:29;;;;;;;;;;;19.00;99.90;;;;;;8324946;28;20348;-71
2023/07/14 08:45:39;;;;;;;;;;;19.00;99.90;;;;;;8323377;28;19929;-71
2023/07/14 08:49:48;;;;;;;;;;;19.00;99.90;;;;;;8342984;28;20445;-71
2023/07/14 08:53:55;;;;;;;;;;;19.10;99.90;;;;;;8328241;28;19980;-72
2023/07/14 08:58:12;;;;;;;;;;;19.10;99.90;;;;;;8324483;28;19929;-71
2023/07/14 09:02:18;;;;;;;;;;;19.10;99.90;;;;;;8327158;28;19972;-71
2023/07/14 09:06:24;;;;;;;;;;;19.10;99.90;;;;;;8325317;28;20380;-71
2023/07/14 09:10:45;;;;;;;;;;;19.20;99.90;;;;;;8326927;28;19952;-71
2023/07/14 09:14:59;;;;;;;;;;;19.20;99.90;;;;;;8324777;28;19925;-72
2023/07/14 09:19:12;;;;;;;;;;;19.30;99.90;;;;;;8330180;28;19929;-71
2023/07/14 09:23:14;;;;;;;;;;;19.30;99.90;;;;;;8326949;28;20018;-72
2023/07/14 09:27:20;;;;;;;;;;;19.40;99.90;;;;;;8330493;28;19929;-72
2023/07/14 09:31:44;;;;;;;;;;;19.40;99.90;;;;;;8330069;28;20287;-71
2023/07/14 09:35:48;;;;;;;;;;;19.50;99.90;;;;;;8351368;28;19928;-72
2023/07/14 09:39:56;;;;;;;;;;;19.60;99.90;;;;;;8331140;28;19975;-71
2023/07/14 09:43:58;;;;;;;;;;;19.70;99.90;;;;;;8332155;28;19933;-71
2023/07/14 09:48:05;;;;;;;;;;;19.80;99.90;;;;;;8333985;28;19933;-72
2023/07/14 09:52:14;;;;;;;;;;;19.90;99.90;;;;;;8340473;28;19939;-71
2023/07/14 09:56:18;;;;;;;;;;;19.90;99.90;;;;;;8332225;28;19936;-70
2023/07/14 10:00:24;;;;;;;;;;;20.00;99.90;;;;;;8326005;28;19925;-70
2023/07/14 10:04:27;;;;;;;;;;;20.00;99.90;;;;;;8327687;28;19933;-70
2023/07/14 10:08:29;;;;;;;;;;;20.00;99.90;;;;;;8323590;28;20849;-70
2023/07/14 10:12:40;;;;;;;;;;;20.10;99.90;;;;;;8325355;28;20015;-71
2023/07/14 10:16:43;;;;;;;;;;;20.10;99.90;;;;;;8321444;28;19929;-71
2023/07/14 10:20:57;;;;;;;;;;;20.20;99.90;;;;;;8347717;28;20351;-71
2023/07/14 10:24:59;;;;;;;;;;;20.30;99.90;;;;;;8309386;28;20039;-71
2023/07/14 10:29:03;;;;;;;;;;;20.20;99.90;;;;;;8287380;28;19927;-71
2023/07/14 10:33:09;;;;;;;;;;;20.20;99.90;;;;;;8298460;28;20449;-70
2023/07/14 10:37:36;;;;;;;;;;;20.20;99.90;;;;;;8298961;28;19925;-71
2023/07/14 10:41:39;;;;;;;;;;;20.20;99.90;;;;;;8291123;28;19929;-71
2023/07/14 10:45:46;;;;;;;;;;;20.20;99.90;;;;;;8293992;28;19925;-71
2023/07/14 10:50:11;;;;;;;;;;;20.20;99.90;;;;;;8294206;28;19961;-71
2023/07/14 10:54:16;;;;;;;;;;;20.20;99.90;;;;;;8273179;28;19933;-70
2023/07/14 10:58:24;;;;;;;;;;;20.20;99.90;;;;;;8295274;28;19976;-71
2023/07/14 11:02:32;;;;;;;;;;;20.30;99.90;;;;;;8295854;28;19924;-71
2023/07/14 11:06:35;;;;;;;;;;;20.30;99.90;;;;;;8293993;28;19933;-71
2023/07/14 11:10:41;;;;;;;;;;;20.30;99.90;;;;;;8281723;28;20372;-71
2023/07/14 11:14:47;;;;;;;;;;;20.30;99.90;;;;;;8291941;28;19933;-71
2023/07/14 11:18:58;;;;;;;;;;;20.30;99.90;;;;;;8297298;28;19933;-71
2023/07/14 11:23:00;;;;;;;;;;;20.30;99.90;;;;;;8289332;28;19930;-71
2023/07/14 11:27:10;;;;;;;;;;;20.30;99.90;;;;;;8322748;28;19935;-70
2023/07/14 11:31:19;;;;;;;;;;;20.40;99.90;;;;;;8332986;28;19940;-70
2023/07/14 11:35:30;;;;;;;;;;;20.40;99.90;;;;;;8326677;28;19979;-71
2023/07/14 11:39:45;;;;;;;;;;;20.60;99.90;;;;;;8322537;28;19984;-71
2023/07/14 11:43:46;;;;;;;;;;;20.70;99.90;;;;;;8320477;28;19933;-71
2023/07/14 11:47:49;;;;;;;;;;;20.70;99.90;;;;;;8338847;28;19975;-71
2023/07/14 11:51:52;;;;;;;;;;;20.80;99.90;;;;;;8326296;28;19928;-70
2023/07/14 11:56:07;;;;;;;;;;;20.90;99.90;;;;;;8326907;28;19937;-70
2023/07/14 12:00:12;;;;;;;;;;;21.00;99.90;;;;;;8320232;28;20360;-71
2023/07/14 12:04:28;;;;;;;;;;;21.20;99.90;;;;;;8317177;28;20180;-70
2023/07/14 12:08:37;;;;;;;;;;;21.30;99.90;;;;;;8340348;28;19933;-71
2023/07/14 12:12:40;;;;;;;;;;;21.40;99.90;;;;;;8319330;28;19944;-70
2023/07/14 12:16:46;;;;;;;;;;;21.50;99.90;;;;;;8318279;28;20392;-70
2023/07/14 12:20:49;;;;;;;;;;;21.50;99.90;;;;;;8333107;28;19995;-71
2023/07/14 12:24:50;;;;;;;;;;;21.60;99.90;;;;;;8315712;28;19933;-70
2023/07/14 12:28:53;;;;;;;;;;;21.70;99.90;;;;;;8318186;28;20395;-70
2023/07/14 12:32:59;;;;;;;;;;;21.70;99.90;;;;;;8319925;28;19929;-71
2023/07/14 12:37:01;;;;;;;;;;;21.80;99.90;;;;;;8327390;28;19929;-71
2023/07/14 12:41:06;;;;;;;;;;;21.80;99.90;;;;;;8314113;28;20291;-71
2023/07/14 12:45:11;;;;;;;;;;;21.90;99.90;;;;;;8322242;28;19933;-71
2023/07/14 12:49:15;;;;;;;;;;;22.10;99.90;;;;;;8330282;28;20421;-71
2023/07/14 12:53:17;;;;;;;;;;;22.20;99.90;;;;;;8325931;28;19936;-71
2023/07/14 12:57:20;;;;;;;;;;;22.20;99.90;;;;;;8325795;28;20376;-71
2023/07/14 13:01:22;;;;;;;;;;;22.20;99.90;;;;;;8334947;28;19925;-70
2023/07/14 13:05:35;;;;;;;;;;;22.20;99.90;;;;;;8338244;28;19925;-71
2023/07/14 13:09:37;;;;;;;;;;;22.20;99.90;;;;;;8325737;28;19963;-71
2023/07/14 13:13:40;;;;;;;;;;;22.20;99.90;;;;;;8331748;28;19932;-70
2023/07/14 13:17:42;;;;;;;;;;;22.30;99.90;;;;;;8338282;28;20442;-70
2023/07/14 13:21:47;;;;;;;;;;;22.30;99.90;;;;;;8335231;28;19940;-70
2023/07/14 13:25:51;;;;;;;;;;;22.30;99.90;;;;;;8326780;28;20007;-71
2023/07/14 13:30:00;;;;;;;;;;;22.30;99.90;;;;;;8331542;28;20399;-71
2023/07/14 13:34:07;;;;;;;;;;;22.30;99.90;;;;;;8326461;28;19929;-71
2023/07/14 13:38:13;;;;;;;;;;;22.40;99.90;;;;;;8326441;28;19936;-71
2023/07/14 13:42:21;;;;;;;;;;;22.50;99.90;;;;;;8343658;28;19933;-71
2023/07/14 13:46:27;;;;;;;;;;;22.60;99.90;;;;;;8338258;28;20312;-71
2023/07/14 13:50:29;;;;;;;;;;;22.70;99.90;;;;;;8330989;28;19924;-70
2023/07/14 13:54:38;;;;;;;;;;;22.70;99.90;;;;;;8328493;28;19928;-71
2023/07/14 13:58:39;;;;;;;;;;;22.70;99.90;;;;;;8327440;28;19925;-70
2023/07/14 14:02:51;;;;;;;;;;;22.70;99.90;;;;;;8326347;28;20519;-70
2023/07/14 14:06:54;;;;;;;;;;;22.70;99.90;;;;;;8326976;28;20387;-70
2023/07/14 14:10:57;;;;;;;;;;;22.70;99.90;;;;;;8325962;28;19936;-71
2023/07/14 14:14:59;;;;;;;;;;;22.70;99.90;;;;;;8336974;28;19971;-70
2023/07/14 14:19:00;;;;;;;;;;;22.70;99.90;;;;;;8330856;28;19951;-70
2023/07/14 14:23:05;;;;;;;;;;;22.70;99.90;;;;;;8328984;28;20466;-71
2023/07/14 14:27:08;;;;;;;;;;;22.70;99.90;;;;;;8340661;28;20048;-70
2023/07/14 14:31:11;;;;;;;;;;;22.70;99.90;;;;;;8324397;28;19929;-70
2023/07/14 14:35:22;;;;;;;;;;;22.70;99.90;;;;;;8326636;28;20147;-71
2023/07/14 14:39:24;;;;;;;;;;;22.80;99.90;;;;;;8330993;28;19933;-71
2023/07/14 14:43:28;;;;;;;;;;;22.80;99.90;;;;;;8331447;28;20651;-71
2023/07/14 14:47:30;;;;;;;;;;;22.80;99.90;;;;;;8328479;28;19932;-70
2023/07/14 14:51:31;;;;;;;;;;;22.80;99.90;;;;;;8327473;28;20031;-70
2023/07/14 14:55:34;;;;;;;;;;;22.90;99.90;;;;;;8318952;28;19932;-70
2023/07/14 14:59:36;;;;;;;;;;;23.00;99.90;;;;;;8316964;28;20292;-69
2023/07/14 15:03:37;;;;;;;;;;;23.00;99.90;;;;;;8322276;28;20776;-70
2023/07/14 15:07:40;;;;;;;;;;;23.10;99.90;;;;;;8349001;28;19929;-70
2023/07/14 15:11:42;;;;;;;;;;;23.10;99.90;;;;;;8323860;28;19929;-70
2023/07/14 15:15:48;;;;;;;;;;;23.20;99.90;;;;;;8321490;28;20287;-70
2023/07/14 15:19:51;;;;;;;;;;;23.30;99.90;;;;;;8317315;28;20283;-70
2023/07/14 15:23:52;;;;;;;;;;;23.40;99.90;;;;;;8314274;28;19971;-70
2023/07/14 15:27:54;;;;;;;;;;;23.50;99.90;;;;;;8316337;28;19924;-70
2023/07/14 15:31:56;;;;;;;;;;;23.60;99.90;;;;;;8325329;28;19937;-70
2023/07/14 15:35:57;;;;;;;;;;;23.70;99.90;;;;;;8309456;28;19950;-70
2023/07/14 15:39:59;;;;;;;;;;;23.80;99.90;;;;;;8338941;28;20307;-70
2023/07/14 15:44:01;;;;;;;;;;;23.80;99.90;;;;;;8320499;28;20023;-70
2023/07/14 15:48:09;;;;;;;;;;;23.80;99.90;;;;;;8320996;28;20303;-70
2023/07/14 15:52:14;;;;;;;;;;;23.80;99.90;;;;;;8321058;28;19983;-70
2023/07/14 15:56:16;;;;;;;;;;;23.80;99.90;;;;;;8321378;28;20753;-70
2023/07/14 16:00:20;;;;;;;;;;;23.70;99.90;;;;;;8331438;28;19940;-70
2023/07/14 16:04:22;;;;;;;;;;;23.60;99.90;;;;;;8323768;28;19975;-70
2023/07/14 16:08:28;;;;;;;;;;;23.60;99.90;;;;;;8318398;28;20460;-70
2023/07/14 16:12:30;;;;;;;;;;;23.60;99.90;;;;;;8314554;28;19928;-70
2023/07/14 16:16:32;;;;;;;;;;;23.60;99.90;;;;;;8314416;28;19924;-70
2023/07/14 16:20:33;;;;;;;;;;;23.60;99.90;;;;;;8317280;28;19933;-71
2023/07/14 16:24:37;;;;;;;;;;;23.50;99.90;;;;;;8318787;28;20399;-70
2023/07/14 16:28:40;;;;;;;;;;;23.50;99.90;;;;;;8323781;28;19991;-70
2023/07/14 16:32:42;;;;;;;;;;;23.50;99.90;;;;;;8319697;28;20398;-70
2023/07/14 16:36:44;;;;;;;;;;;23.50;99.90;;;;;;8325476;28;19939;-70
2023/07/14 16:40:46;;;;;;;;;;;23.40;99.90;;;;;;8317200;28;20372;-70
2023/07/14 16:44:47;;;;;;;;;;;23.40;99.90;;;;;;8325081;28;19929;-70
2023/07/14 16:48:51;;;;;;;;;;;23.40;99.90;;;;;;8314579;28;19925;-70
2023/07/14 16:52:53;;;;;;;;;;;23.40;99.90;;;;;;8320672;28;19929;-70
2023/07/14 16:56:55;;;;;;;;;;;23.40;99.90;;;;;;8319084;28;19989;-70
2023/07/14 17:00:57;;;;;;;;;;;23.30;99.90;;;;;;8326604;28;20666;-70
2023/07/14 17:04:59;;;;;;;;;;;23.30;99.90;;;;;;8322438;28;20392;-71
2023/07/14 17:09:01;;;;;;;;;;;23.40;99.90;;;;;;8316757;28;19939;-70
2023/07/14 17:13:03;;;;;;;;;;;23.30;99.90;;;;;;8317789;28;19929;-70
2023/07/14 17:17:21;;;;;;;;;;;23.30;99.90;;;;;;8328588;28;19925;-70
2023/07/14 17:21:22;;;;;;;;;;;23.30;99.90;;;;;;8321439;28;20818;-70
2023/07/14 17:25:24;;;;;;;;;;;23.30;99.90;;;;;;8320820;28;20446;-70
2023/07/14 17:29:31;;;;;;;;;;;23.30;99.90;;;;;;8322234;28;20407;-70
2023/07/14 17:33:32;;;;;;;;;;;23.30;99.90;;;;;;8323567;28;20007;-70
2023/07/14 17:37:34;;;;;;;;;;;23.30;99.90;;;;;;8323520;28;19936;-70
2023/07/14 17:41:36;;;;;;;;;;;23.30;99.90;;;;;;8301695;28;19925;-70
2023/07/14 17:45:39;;;;;;;;;;;23.30;99.90;;;;;;8331834;28;19967;-71
2023/07/14 17:49:41;;;;;;;;;;;23.30;99.90;;;;;;8329649;28;19988;-70
2023/07/14 17:53:43;;;;;;;;;;;23.30;99.90;;;;;;8324095;28;19930;-71
2023/07/14 17:57:45;;;;;;;;;;;23.30;99.90;;;;;;8327586;28;19936;-70
2023/07/14 18:01:48;;;;;;;;;;;23.30;99.90;;;;;;8325079;28;19932;-70
2023/07/14 18:05:50;;;;;;;;;;;23.30;99.90;;;;;;8329633;28;19929;-71
2023/07/14 18:09:52;;;;;;;;;;;23.30;99.90;;;;;;8334345;28;19925;-71
2023/07/14 18:13:53;;;;;;;;;;;23.30;99.90;;;;;;8334392;28;20348;-70
2023/07/14 18:17:56;;;;;;;;;;;23.30;99.90;;;;;;8342827;28;20427;-71
2023/07/14 18:21:58;;;;;;;;;;;23.30;99.90;;;;;;8324067;28;19943;-70
2023/07/14 18:25:59;;;;;;;;;;;23.30;99.90;;;;;;8337715;28;19929;-70
2023/07/14 18:30:07;;;;;;;;;;;23.30;99.90;;;;;;8326398;28;19928;-70
2023/07/14 18:34:12;;;;;;;;;;;23.30;99.90;;;;;;8323472;28;20385;-70
2023/07/14 18:38:17;;;;;;;;;;;23.20;99.90;;;;;;8330208;28;20379;-70
2023/07/14 18:42:24;;;;;;;;;;;23.20;99.90;;;;;;8326185;28;19939;-70
2023/07/14 18:46:27;;;;;;;;;;;23.20;99.90;;;;;;8325914;28;19932;-71
2023/07/14 18:50:29;;;;;;;;;;;23.20;99.90;;;;;;8327696;28;20066;-70
2023/07/14 18:54:31;;;;;;;;;;;23.20;99.90;;;;;;8329512;28;20272;-71
2023/07/14 18:58:32;;;;;;;;;;;23.20;99.90;;;;;;8330383;28;19935;-71
2023/07/14 19:02:36;;;;;;;;;;;23.10;99.90;;;;;;8332905;28;19929;-70
2023/07/14 19:06:38;;;;;;;;;;;23.10;99.90;;;;;;8328369;28;19933;-70
2023/07/14 19:10:40;;;;;;;;;;;23.10;99.90;;;;;;8327093;28;19933;-70
2023/07/14 19:14:42;;;;;;;;;;;23.00;99.90;;;;;;8327532;28;20372;-70
2023/07/14 19:18:44;;;;;;;;;;;23.00;99.90;;;;;;8327863;28;20280;-70
2023/07/14 19:22:46;;;;;;;;;;;23.00;99.90;;;;;;8345745;28;19928;-70
2023/07/14 19:26:49;;;;;;;;;;;22.90;99.90;;;;;;8338307;28;20292;-70
2023/07/14 19:30:52;;;;;;;;;;;22.90;99.90;;;;;;8335518;28;20319;-70
2023/07/14 19:34:53;;;;;;;;;;;22.90;99.90;;;;;;8325641;28;19925;-70
2023/07/14 19:38:55;;;;;;;;;;;22.80;99.90;;;;;;8328362;28;19936;-71
2023/07/14 19:43:00;;;;;;;;;;;22.80;99.90;;;;;;8326575;28;20470;-70
2023/07/14 19:47:13;;;;;;;;;;;22.80;99.90;;;;;;8333784;28;20394;-70
2023/07/14 19:51:20;;;;;;;;;;;22.80;99.90;;;;;;8341991;28;19929;-71
2023/07/14 19:55:23;;;;;;;;;;;22.80;99.90;;;;;;8327751;28;19929;-70
2023/07/14 19:59:26;;;;;;;;;;;22.70;99.90;;;;;;8332450;28;19937;-71
2023/07/14 20:03:29;;;;;;;;;;;22.70;99.90;;;;;;8325124;28;19925;-70
2023/07/14 20:07:32;;;;;;;;;;;22.70;99.90;;;;;;8332464;28;19984;-70
2023/07/14 20:11:34;;;;;;;;;;;22.60;99.90;;;;;;8344803;28;19929;-70
2023/07/14 20:15:36;;;;;;;;;;;22.60;99.90;;;;;;8328536;28;19925;-71
2023/07/14 20:19:37;;;;;;;;;;;22.60;99.90;;;;;;8325199;28;19983;-70
2023/07/14 20:23:39;;;;;;;;;;;22.60;99.90;;;;;;8329691;28;19931;-71
2023/07/14 20:27:41;;;;;;;;;;;22.60;99.90;;;;;;8329669;28;19925;-70
2023/07/14 20:31:43;;;;;;;;;;;22.60;99.90;;;;;;8325792;28;19931;-70
2023/07/14 20:35:45;;;;;;;;;;;22.60;99.90;;;;;;8322358;28;20310;-70
2023/07/14 20:39:47;;;;;;;;;;;22.60;99.90;;;;;;8338706;28;20364;-70
2023/07/14 20:43:49;;;;;;;;;;;22.50;99.90;;;;;;8324480;28;19929;-70
2023/07/14 20:47:51;;;;;;;;;;;22.50;99.90;;;;;;8329373;28;19929;-70
2023/07/14 20:51:54;;;;;;;;;;;22.50;99.90;;;;;;8326744;28;19930;-70
2023/07/14 20:55:57;;;;;;;;;;;22.50;99.90;;;;;;8326087;28;19935;-70
2023/07/14 20:59:59;;;;;;;;;;;22.50;99.90;;;;;;8325892;28;19936;-71
2023/07/14 21:04:00;;;;;;;;;;;22.50;99.90;;;;;;8362275;28;19925;-71
2023/07/14 21:08:13;;;;;;;;;;;22.50;99.90;;;;;;8363098;28;19925;-71
2023/07/14 21:12:20;;;;;;;;;;;22.50;99.90;;;;;;8385096;28;19937;-70
2023/07/14 21:16:23;;;;;;;;;;;22.50;99.90;;;;;;8347602;28;19929;-70
2023/07/14 21:20:25;;;;;;;;;;;22.40;99.90;;;;;;8379527;28;20010;-70
2023/07/14 21:24:27;;;;;;;;;;;22.40;99.90;;;;;;8367187;28;19991;-71
2023/07/14 21:28:29;;;;;;;;;;;22.40;99.90;;;;;;8377257;28;19936;-71
2023/07/14 21:32:32;;;;;;;;;;;22.40;99.90;;;;;;8358696;28;19982;-70
2023/07/14 21:36:34;;;;;;;;;;;22.30;99.90;;;;;;8361170;28;19932;-70
2023/07/14 21:40:35;;;;;;;;;;;22.30;99.90;;;;;;8361233;28;20419;-71
2023/07/14 21:44:37;;;;;;;;;;;22.30;99.90;;;;;;8374280;28;19925;-71
2023/07/14 21:48:39;;;;;;;;;;;22.40;99.90;;;;;;8370067;28;20412;-71
2023/07/14 21:52:41;;;;;;;;;;;22.30;99.90;;;;;;8374544;28;19925;-71
2023/07/14 21:56:43;;;;;;;;;;;22.30;99.90;;;;;;8368056;28;19924;-71
2023/07/14 22:00:45;;;;;;;;;;;22.20;99.90;;;;;;8372404;28;19956;-70
2023/07/14 22:04:47;;;;;;;;;;;22.20;99.90;;;;;;8376185;28;19931;-70
2023/07/14 22:08:49;;;;;;;;;;;22.20;99.90;;;;;;8355412;28;19987;-70
2023/07/14 22:12:53;;;;;;;;;;;22.20;99.90;;;;;;8364969;28;19933;-70
2023/07/14 22:16:55;;;;;;;;;;;22.20;99.90;;;;;;8364579;28;20652;-71
2023/07/14 22:20:59;;;;;;;;;;;22.20;99.90;;;;;;8354145;28;19940;-71
2023/07/14 22:25:01;;;;;;;;;;;22.10;99.90;;;;;;8357379;28;19977;-70
2023/07/14 22:29:03;;;;;;;;;;;22.20;99.90;;;;;;8361547;28;19928;-71
2023/07/14 22:33:19;;;;;;;;;;;22.20;99.90;;;;;;8380523;28;19925;-70
2023/07/14 22:37:21;;;;;;;;;;;22.20;99.90;;;;;;8380809;28;19928;-71
2023/07/14 22:41:28;;;;;;;;;;;22.20;99.90;;;;;;8354747;28;20388;-70
2023/07/14 22:45:30;;;;;;;;;;;22.20;99.90;;;;;;8370026;28;19928;-70
2023/07/14 22:49:32;;;;;;;;;;;22.20;99.90;;;;;;8372699;28;20703;-70
2023/07/14 22:53:34;;;;;;;;;;;22.20;99.90;;;;;;8371388;28;19924;-70
2023/07/14 22:57:35;;;;;;;;;;;22.30;99.90;;;;;;8366806;28;19925;-71
2023/07/14 23:01:37;;;;;;;;;;;22.30;99.90;;;;;;8370497;28;20287;-71
2023/07/14 23:05:39;;;;;;;;;;;22.30;99.90;;;;;;8371281;28;19929;-70
2023/07/14 23:09:40;;;;;;;;;;;22.30;99.90;;;;;;8374438;28;19924;-70
2023/07/14 23:13:42;;;;;;;;;;;22.30;99.90;;;;;;8381361;28;19925;-71
2023/07/14 23:17:44;;;;;;;;;;;22.30;99.90;;;;;;8356978;28;19932;-70
2023/07/14 23:21:46;;;;;;;;;;;22.30;99.90;;;;;;8371042;28;20352;-70
2023/07/14 23:25:50;;;;;;;;;;;22.30;99.90;;;;;;8350448;28;19925;-70
2023/07/14 23:29:52;;;;;;;;;;;22.30;99.90;;;;;;8362447;28;20380;-70
2023/07/14 23:33:54;;;;;;;;;;;22.40;99.90;;;;;;8364149;28;20007;-71
2023/07/14 23:37:56;;;;;;;;;;;22.40;99.90;;;;;;8372571;28;19970;-71
2023/07/14 23:41:57;;;;;;;;;;;22.40;99.90;;;;;;8344048;28;19924;-71